createdAt,value
2022-08-04T00:01:22.723Z,23.30
2022-08-04T00:04:03.047Z,23.30
2022-08-04T00:06:49.733Z,23.30
2022-08-04T00:09:31.040Z,23.30
2022-08-04T00:12:03.922Z,23.30
2022-08-04T00:14:36.603Z,23.20
2022-08-04T00:17:08.306Z,23.10
2022-08-04T00:19:42.813Z,23.10
2022-08-04T00:22:14.567Z,23.10
2022-08-04T00:24:44.832Z,23.10
2022-08-04T00:27:14.136Z,23.10
2022-08-04T00:29:44.536Z,23.10
2022-08-04T00:32:14.610Z,23.10
2022-08-04T00:35:03.110Z,23.10
2022-08-04T00:37:34.541Z,23.00
2022-08-04T00:40:09.026Z,23.00
2022-08-04T00:42:58.518Z,23.00
2022-08-04T00:46:28.739Z,22.90
2022-08-04T00:49:41.286Z,22.90
2022-08-04T00:52:33.592Z,22.90
2022-08-04T00:55:37.711Z,22.90
2022-08-04T00:58:34.227Z,22.80
2022-08-04T01:01:07.022Z,22.80
2022-08-04T01:04:04.430Z,22.70
2022-08-04T01:06:50.871Z,22.70
2022-08-04T01:09:41.197Z,22.70
2022-08-04T01:12:33.611Z,22.60
2022-08-04T01:15:08.046Z,22.60
2022-08-04T01:18:00.046Z,22.60
2022-08-04T01:20:36.218Z,22.60
2022-08-04T01:23:44.079Z,22.50
2022-08-04T01:26:53.758Z,22.50
2022-08-04T01:29:46.654Z,22.50
2022-08-04T01:32:26.732Z,22.50
2022-08-04T01:35:07.485Z,22.50
2022-08-04T01:37:55.151Z,22.50
2022-08-04T01:40:27.383Z,22.50
2022-08-04T01:42:59.825Z,22.40
2022-08-04T01:45:31.531Z,22.30
2022-08-04T01:48:03.635Z,22.30
2022-08-04T01:50:37.063Z,22.30
2022-08-04T01:53:06.217Z,22.10
2022-08-04T01:55:54.517Z,22.20
2022-08-04T01:58:26.288Z,22.10
2022-08-04T02:01:04.893Z,22.10
2022-08-04T02:04:21.228Z,22.10
2022-08-04T02:06:37.484Z,22.20
2022-08-04T02:09:18.918Z,22.20
2022-08-04T02:12:03.301Z,22.20
2022-08-04T02:14:43.157Z,22.20
2022-08-04T02:17:16.250Z,22.30
2022-08-04T02:20:16.206Z,22.30
2022-08-04T02:22:54.522Z,22.30
2022-08-04T02:25:27.568Z,22.40
2022-08-04T02:28:13.897Z,22.40
2022-08-04T02:30:55.929Z,22.30
2022-08-04T02:33:36.919Z,22.40
2022-08-04T02:36:10.419Z,22.40
2022-08-04T02:38:59.832Z,22.30
2022-08-04T02:41:31.580Z,22.30
2022-08-04T02:44:04.908Z,22.20
2022-08-04T02:46:36.226Z,22.30
2022-08-04T02:49:09.291Z,22.30
2022-08-04T02:51:42.041Z,22.30
2022-08-04T02:54:10.727Z,22.30
2022-08-04T02:56:43.907Z,22.30
2022-08-04T02:59:14.781Z,22.30
2022-08-04T03:01:57.457Z,22.30
2022-08-04T03:04:58.351Z,22.40
2022-08-04T03:08:00.463Z,22.40
2022-08-04T03:11:27.368Z,22.40
2022-08-04T03:14:40.192Z,22.30
2022-08-04T03:17:53.168Z,22.30
2022-08-04T03:21:04.237Z,22.20
2022-08-04T03:24:22.733Z,22.20
2022-08-04T03:27:32.283Z,22.20
2022-08-04T03:30:11.717Z,22.10
2022-08-04T03:33:38.596Z,22.00
2022-08-04T03:37:07.456Z,22.00
2022-08-04T03:40:24.004Z,22.00
2022-08-04T03:43:57.582Z,22.00
2022-08-04T03:46:44.667Z,22.00
2022-08-04T03:49:50.295Z,22.00
2022-08-04T03:53:09.388Z,22.00
2022-08-04T03:56:15.655Z,21.90
2022-08-04T03:59:19.354Z,21.90
2022-08-04T04:02:40.848Z,22.00
2022-08-04T04:06:00.511Z,21.90
2022-08-04T04:09:20.764Z,22.00
2022-08-04T04:12:22.755Z,22.10
2022-08-04T04:15:21.548Z,22.10
2022-08-04T04:18:33.337Z,22.20
2022-08-04T04:21:28.445Z,22.20
2022-08-04T04:24:37.196Z,22.30
2022-08-04T04:27:23.224Z,22.50
2022-08-04T04:30:06.073Z,22.60
2022-08-04T04:33:04.441Z,22.70
2022-08-04T04:35:42.524Z,22.80
2022-08-04T04:38:53.401Z,23.00
2022-08-04T04:41:47.781Z,23.30
2022-08-04T04:44:56.753Z,23.70
2022-08-04T04:48:09.160Z,24.00
2022-08-04T04:50:37.750Z,24.30
2022-08-04T04:53:25.357Z,24.70
2022-08-04T04:56:06.630Z,24.90
2022-08-04T04:58:39.604Z,25.30
2022-08-04T05:01:35.391Z,25.60
2022-08-04T05:04:30.166Z,26.10
2022-08-04T05:07:39.316Z,26.50
2022-08-04T05:10:28.557Z,26.80
2022-08-04T05:14:34.555Z,27.10
2022-08-04T05:16:22.360Z,27.30
2022-08-04T05:19:03.421Z,27.70
2022-08-04T05:21:43.198Z,27.70
2022-08-04T05:24:16.285Z,27.80
2022-08-04T05:26:51.341Z,27.50
2022-08-04T05:29:31.954Z,27.30
2022-08-04T05:32:09.634Z,27.20
2022-08-04T05:34:45.671Z,27.30
2022-08-04T05:37:19.879Z,27.50
2022-08-04T05:39:56.832Z,27.50
2022-08-04T05:42:27.135Z,28.00
2022-08-04T05:44:57.531Z,28.20
2022-08-04T05:47:29.383Z,28.50
2022-08-04T05:50:01.615Z,28.70
2022-08-04T05:52:33.291Z,29.30
2022-08-04T05:55:03.656Z,30.00
2022-08-04T05:57:33.627Z,30.90
2022-08-04T06:00:19.772Z,31.40
2022-08-04T06:02:59.576Z,32.10
2022-08-04T06:05:29.763Z,33.40
2022-08-04T06:08:11.838Z,34.30
2022-08-04T06:10:44.936Z,35.40
2022-08-04T06:13:49.496Z,36.10
2022-08-04T06:16:28.630Z,36.70
2022-08-04T06:20:03.290Z,36.90
2022-08-04T06:21:59.525Z,36.80
2022-08-04T06:24:32.101Z,37.10
2022-08-04T06:27:01.384Z,37.30
2022-08-04T06:29:36.112Z,37.20
2022-08-04T06:32:29.845Z,36.70
2022-08-04T06:35:04.632Z,36.50
2022-08-04T06:37:42.130Z,36.60
2022-08-04T06:40:29.715Z,36.50
2022-08-04T06:43:03.080Z,36.60
2022-08-04T06:45:34.418Z,36.60
2022-08-04T06:48:05.234Z,36.50
2022-08-04T06:51:25.418Z,36.70
2022-08-04T06:53:27.047Z,37.20
2022-08-04T06:55:58.068Z,37.60
2022-08-04T06:58:31.440Z,37.80
2022-08-04T07:01:03.104Z,37.60
2022-08-04T07:03:33.311Z,37.10
2022-08-04T07:06:06.323Z,36.90
2022-08-04T07:08:43.786Z,36.60
2022-08-04T07:11:13.407Z,36.20
2022-08-04T07:13:45.176Z,35.60
2022-08-04T07:16:16.862Z,35.60
2022-08-04T07:18:45.645Z,35.40
2022-08-04T07:21:22.755Z,35.40
2022-08-04T07:23:51.859Z,35.30
2022-08-04T07:26:20.984Z,35.00
2022-08-04T07:28:49.856Z,34.90
2022-08-04T07:31:34.593Z,35.10
2022-08-04T07:34:17.805Z,35.40
2022-08-04T07:36:55.663Z,35.40
2022-08-04T07:39:28.933Z,35.70
2022-08-04T07:42:02.133Z,35.80
2022-08-04T07:44:33.193Z,36.10
2022-08-04T07:47:04.144Z,36.30
2022-08-04T07:49:56.132Z,36.40
2022-08-04T07:52:23.788Z,35.60
2022-08-04T07:54:54.319Z,35.30
2022-08-04T07:57:40.280Z,35.90
2022-08-04T08:00:14.808Z,36.40
2022-08-04T08:02:44.574Z,35.70
2022-08-04T08:05:18.138Z,35.60
2022-08-04T08:07:50.812Z,35.80
2022-08-04T08:10:24.647Z,35.90
2022-08-04T08:12:55.035Z,35.90
2022-08-04T08:15:24.249Z,35.50
2022-08-04T08:17:58.142Z,35.00
2022-08-04T08:20:31.695Z,34.60
2022-08-04T08:23:03.363Z,34.70
2022-08-04T08:25:33.814Z,34.60
2022-08-04T08:28:05.980Z,34.30
2022-08-04T08:30:35.160Z,34.40
2022-08-04T08:33:08.633Z,34.40
2022-08-04T08:35:53.840Z,34.40
2022-08-04T08:38:39.875Z,34.80
2022-08-04T08:41:36.620Z,34.90
2022-08-04T08:44:46.007Z,34.90
2022-08-04T08:48:05.040Z,34.90
2022-08-04T08:51:02.996Z,34.90
2022-08-04T08:54:03.218Z,35.00
2022-08-04T08:56:40.526Z,35.60
2022-08-04T08:59:51.188Z,35.60
2022-08-04T09:03:04.460Z,35.80
2022-08-04T09:06:43.280Z,36.00
2022-08-04T09:09:48.832Z,36.10
2022-08-04T09:12:29.042Z,36.70
2022-08-04T09:15:14.119Z,37.50
2022-08-04T09:17:49.633Z,38.20
2022-08-04T09:20:30.813Z,38.30
2022-08-04T09:23:14.909Z,38.30
2022-08-04T09:25:59.005Z,38.50
2022-08-04T09:28:53.186Z,38.40
2022-08-04T09:31:25.449Z,38.70
2022-08-04T09:34:07.112Z,39.30
2022-08-04T09:36:42.246Z,39.80
2022-08-04T09:39:25.324Z,40.10
2022-08-04T09:42:13.150Z,40.00
2022-08-04T09:45:05.720Z,40.00
2022-08-04T09:47:45.353Z,40.00
2022-08-04T09:50:30.795Z,40.30
2022-08-04T09:53:13.174Z,40.20
2022-08-04T09:56:02.983Z,39.80
2022-08-04T09:58:54.842Z,39.70
2022-08-04T10:01:27.587Z,39.60
2022-08-04T10:04:02.333Z,39.70
2022-08-04T10:07:36.375Z,39.70
2022-08-04T10:10:26.617Z,39.30
2022-08-04T10:13:24.632Z,39.10
2022-08-04T10:16:21.495Z,39.10
2022-08-04T10:19:08.059Z,39.00
2022-08-04T10:22:27.082Z,39.20
2022-08-04T10:24:59.633Z,39.50
2022-08-04T10:27:37.625Z,39.40
2022-08-04T10:30:12.033Z,39.60
2022-08-04T10:32:52.755Z,39.80
2022-08-04T10:35:26.524Z,39.90
2022-08-04T10:38:10.999Z,39.70
2022-08-04T10:40:46.649Z,39.70
2022-08-04T10:43:41.647Z,39.80
2022-08-04T10:46:16.715Z,39.50
2022-08-04T10:48:57.855Z,38.90
2022-08-04T10:51:57.526Z,38.40
2022-08-04T10:54:36.397Z,38.10
2022-08-04T10:57:12.184Z,38.00
2022-08-04T10:59:48.523Z,37.80
2022-08-04T11:02:32.836Z,37.30
2022-08-04T11:05:15.584Z,37.00
2022-08-04T11:07:50.580Z,36.90
2022-08-04T11:10:25.011Z,36.50
2022-08-04T11:13:03.275Z,36.60
2022-08-04T11:15:39.816Z,36.70
2022-08-04T11:18:20.667Z,36.80
2022-08-04T11:21:02.618Z,36.80
2022-08-04T11:23:38.611Z,36.80
2022-08-04T11:26:16.993Z,36.70
2022-08-04T11:29:03.857Z,36.60
2022-08-04T11:31:37.147Z,36.60
2022-08-04T11:34:18.885Z,36.50
2022-08-04T11:36:56.675Z,36.40
2022-08-04T11:39:30.790Z,36.10
2022-08-04T11:42:11.419Z,36.10
2022-08-04T11:44:49.232Z,36.20
2022-08-04T11:47:30.275Z,36.30
2022-08-04T11:50:09.476Z,36.30
2022-08-04T11:52:43.943Z,36.00
2022-08-04T11:55:21.196Z,35.90
2022-08-04T11:57:54.316Z,35.80
2022-08-04T12:00:27.761Z,35.90
2022-08-04T12:03:31.860Z,35.90
2022-08-04T12:06:18.888Z,35.90
2022-08-04T12:09:05.111Z,35.90
2022-08-04T12:11:53.888Z,35.90
2022-08-04T12:14:39.715Z,35.80
2022-08-04T12:17:12.021Z,35.50
2022-08-04T12:20:03.830Z,35.40
2022-08-04T12:22:49.011Z,35.40
2022-08-04T12:25:25.823Z,35.70
2022-08-04T12:28:01.732Z,35.80
2022-08-04T12:30:57.179Z,35.80
2022-08-04T12:34:03.536Z,35.70
2022-08-04T12:36:36.733Z,35.90
2022-08-04T12:39:12.904Z,36.10
2022-08-04T12:41:59.215Z,36.10
2022-08-04T12:44:37.508Z,36.20
2022-08-04T12:47:28.500Z,36.10
2022-08-04T12:50:04.390Z,36.10
2022-08-04T12:55:37.054Z,36.50
2022-08-04T12:58:42.406Z,36.50
2022-08-04T13:02:05.661Z,36.30
2022-08-04T13:04:03.970Z,36.10
2022-08-04T13:06:36.855Z,36.00
2022-08-04T13:09:09.505Z,36.10
2022-08-04T13:11:45.090Z,36.10
2022-08-04T13:14:27.063Z,36.40
2022-08-04T13:17:00.265Z,36.50
2022-08-04T13:19:30.987Z,36.40
2022-08-04T13:22:03.236Z,36.50
2022-08-04T13:24:56.260Z,36.50
2022-08-04T13:27:26.538Z,36.50
2022-08-04T13:30:04.071Z,36.40
2022-08-04T13:32:35.112Z,36.30
2022-08-04T13:35:05.868Z,36.20
2022-08-04T13:37:38.894Z,36.10
2022-08-04T13:40:13.733Z,36.00
2022-08-04T13:42:52.392Z,36.10
2022-08-04T13:45:34.785Z,36.10
2022-08-04T13:48:20.197Z,36.40
2022-08-04T13:50:55.133Z,36.50
2022-08-04T13:53:27.805Z,36.60
2022-08-04T13:56:02.356Z,36.60
2022-08-04T13:58:40.480Z,36.60
2022-08-04T14:01:17.760Z,36.50
2022-08-04T14:04:00.383Z,36.50
2022-08-04T14:06:34.711Z,36.50
2022-08-04T14:09:14.758Z,36.50
2022-08-04T14:12:06.566Z,36.60
2022-08-04T14:14:38.313Z,36.50
2022-08-04T14:17:20.423Z,36.50
2022-08-04T14:19:55.484Z,36.50
2022-08-04T14:22:36.587Z,36.40
2022-08-04T14:25:16.155Z,36.10
2022-08-04T14:27:48.780Z,35.90
2022-08-04T14:30:27.237Z,35.80
2022-08-04T14:34:04.788Z,35.70
2022-08-04T14:35:59.367Z,35.60
2022-08-04T14:38:54.141Z,35.50
2022-08-04T14:41:29.507Z,35.40
2022-08-04T14:44:01.436Z,35.30
2022-08-04T14:46:36.803Z,35.30
2022-08-04T14:49:10.904Z,35.10
2022-08-04T14:51:43.300Z,35.00
2022-08-04T14:54:18.580Z,34.80
2022-08-04T14:56:55.196Z,34.90
2022-08-04T14:59:24.537Z,34.80
2022-08-04T15:02:00.289Z,34.70
2022-08-04T15:04:32.281Z,34.80
2022-08-04T15:07:01.373Z,34.90
2022-08-04T15:09:34.472Z,34.90
2022-08-04T15:12:05.087Z,35.00
2022-08-04T15:14:36.753Z,34.90
2022-08-04T15:17:12.521Z,34.80
2022-08-04T15:19:59.051Z,34.80
2022-08-04T15:22:28.152Z,34.80
2022-08-04T15:24:56.975Z,34.90
2022-08-04T15:27:29.811Z,34.90
2022-08-04T15:30:03.944Z,35.00
2022-08-04T15:32:36.945Z,35.00
2022-08-04T15:35:12.697Z,34.90
2022-08-04T15:38:03.660Z,34.90
2022-08-04T15:40:44.925Z,34.90
2022-08-04T15:43:40.611Z,34.90
2022-08-04T15:46:43.440Z,34.90
2022-08-04T15:49:20.206Z,35.00
2022-08-04T15:52:01.507Z,35.00
2022-08-04T15:54:33.173Z,34.90
2022-08-04T15:57:03.450Z,35.00
2022-08-04T16:00:00.213Z,35.00
2022-08-04T16:02:44.043Z,34.90
2022-08-04T16:05:40.090Z,34.90
2022-08-04T16:08:18.125Z,34.90
2022-08-04T16:10:50.540Z,34.90
2022-08-04T16:13:22.134Z,34.90
2022-08-04T16:15:54.025Z,34.90
2022-08-04T16:18:43.586Z,34.80
2022-08-04T16:21:24.971Z,34.70
2022-08-04T16:24:20.063Z,34.70
2022-08-04T16:26:55.122Z,34.70
2022-08-04T16:29:35.506Z,34.70
2022-08-04T16:32:13.639Z,34.70
2022-08-04T16:34:55.218Z,34.60
2022-08-04T16:37:31.485Z,34.50
2022-08-04T16:40:37.435Z,34.50
2022-08-04T16:43:13.609Z,34.50
2022-08-04T16:45:55.106Z,34.40
2022-08-04T16:48:27.287Z,34.30
2022-08-04T16:51:04.750Z,34.30
2022-08-04T16:54:02.623Z,34.30
2022-08-04T16:56:34.712Z,34.20
2022-08-04T16:59:09.407Z,34.00
2022-08-04T17:01:39.207Z,34.00
2022-08-04T17:04:08.348Z,33.80
2022-08-04T17:06:40.747Z,33.60
2022-08-04T17:09:13.695Z,33.40
2022-08-04T17:11:48.198Z,33.20
2022-08-04T17:14:22.897Z,33.00
2022-08-04T17:16:53.100Z,33.00
2022-08-04T17:19:25.979Z,33.00
2022-08-04T17:22:04.709Z,33.00
2022-08-04T17:24:36.838Z,33.10
2022-08-04T17:28:19.876Z,33.10
2022-08-04T17:29:56.928Z,33.10
2022-08-04T17:32:25.755Z,33.10
2022-08-04T17:35:00.060Z,33.00
2022-08-04T17:37:40.847Z,33.00
2022-08-04T17:40:13.992Z,33.00
2022-08-04T17:42:45.395Z,33.00
2022-08-04T17:48:09.962Z,32.90
2022-08-04T17:50:43.776Z,32.80
2022-08-04T17:53:13.421Z,32.80
2022-08-04T17:55:46.847Z,32.80
2022-08-04T17:58:23.944Z,32.80
2022-08-04T18:01:23.637Z,32.70
2022-08-04T18:03:53.228Z,32.80
2022-08-04T18:06:25.704Z,32.80
2022-08-04T18:08:58.824Z,33.00
2022-08-04T18:11:29.672Z,33.20
2022-08-04T18:14:12.439Z,33.20
2022-08-04T18:16:45.088Z,33.20
2022-08-04T18:19:19.131Z,33.00
2022-08-04T18:21:59.814Z,33.00
2022-08-04T18:27:25.407Z,32.80
2022-08-04T18:30:33.934Z,32.50
2022-08-04T18:33:24.481Z,32.20
2022-08-04T18:36:36.233Z,31.70
2022-08-04T18:38:25.013Z,31.30
2022-08-04T18:40:54.618Z,30.90
2022-08-04T18:43:28.519Z,30.60
2022-08-04T18:46:00.678Z,30.40
2022-08-04T18:48:35.943Z,30.10
2022-08-04T18:51:23.200Z,29.90
2022-08-04T18:53:58.613Z,29.80
2022-08-04T18:56:32.534Z,29.60
2022-08-04T18:59:02.954Z,29.50
2022-08-04T19:02:13.479Z,29.30
2022-08-04T19:04:33.058Z,29.10
2022-08-04T19:07:25.137Z,29.00
2022-08-04T19:09:54.018Z,28.80
2022-08-04T19:12:27.244Z,28.70
2022-08-04T19:15:08.436Z,28.70
2022-08-04T19:20:30.741Z,28.50
2022-08-04T19:24:11.213Z,28.40
2022-08-04T19:26:03.011Z,28.30
2022-08-04T19:28:37.163Z,28.20
2022-08-04T19:31:07.876Z,28.20
2022-08-04T19:33:59.280Z,28.10
2022-08-04T19:36:31.038Z,28.10
2022-08-04T19:39:02.120Z,28.00
2022-08-04T19:41:33.792Z,27.90
2022-08-04T19:44:23.575Z,27.90
2022-08-04T19:46:52.520Z,27.80
2022-08-04T19:50:04.795Z,27.80
2022-08-04T19:52:11.552Z,27.70
2022-08-04T19:54:41.181Z,27.60
2022-08-04T19:57:09.902Z,27.60
2022-08-04T20:02:29.674Z,27.50
2022-08-04T20:04:59.511Z,27.50
2022-08-04T20:07:28.249Z,27.50
2022-08-04T20:09:57.206Z,27.50
2022-08-04T20:12:25.600Z,27.50
2022-08-04T20:14:54.335Z,27.50
2022-08-04T20:17:23.491Z,27.40
2022-08-04T20:20:14.844Z,27.50
2022-08-04T20:22:52.279Z,27.40
2022-08-04T20:25:36.470Z,27.30
2022-08-04T20:28:06.492Z,27.30
2022-08-04T20:30:35.361Z,27.30
2022-08-04T20:33:06.745Z,27.20
2022-08-04T20:35:45.966Z,27.20
2022-08-04T20:38:33.417Z,27.10
2022-08-04T20:41:02.650Z,27.10
2022-08-04T20:43:31.537Z,27.10
2022-08-04T20:46:00.387Z,27.10
2022-08-04T20:48:30.251Z,27.10
2022-08-04T20:51:03.853Z,27.00
2022-08-04T20:53:46.856Z,26.90
2022-08-04T20:56:31.001Z,26.90
2022-08-04T20:59:00.640Z,26.90
2022-08-04T21:01:30.715Z,26.80
2022-08-04T21:04:27.413Z,26.80
2022-08-04T21:06:58.979Z,26.70
2022-08-04T21:09:38.576Z,26.70
2022-08-04T21:12:26.889Z,26.70
2022-08-04T21:15:01.169Z,26.80
2022-08-04T21:20:29.959Z,26.70
2022-08-04T21:23:02.260Z,26.70
2022-08-04T21:25:32.257Z,26.60
2022-08-04T21:28:07.387Z,26.70
2022-08-04T21:30:54.052Z,26.70
2022-08-04T21:33:43.931Z,26.70
2022-08-04T21:36:16.107Z,26.80
2022-08-04T21:38:51.451Z,26.90
2022-08-04T21:41:24.819Z,26.80
2022-08-04T21:43:58.618Z,26.70
2022-08-04T21:46:30.033Z,26.60
2022-08-04T21:48:59.830Z,26.60
2022-08-04T21:51:57.734Z,26.50
2022-08-04T21:54:23.938Z,26.50
2022-08-04T21:56:52.459Z,26.50
2022-08-04T21:59:23.630Z,26.50
2022-08-04T22:02:01.760Z,26.50
2022-08-04T22:04:31.377Z,26.40
2022-08-04T22:07:03.164Z,26.40
2022-08-04T22:09:41.303Z,26.40
2022-08-04T22:12:11.622Z,26.30
2022-08-04T22:14:41.063Z,26.20
2022-08-04T22:17:13.637Z,26.10
2022-08-04T22:19:55.672Z,26.00
2022-08-04T22:22:29.083Z,25.90
2022-08-04T22:25:12.528Z,25.80
2022-08-04T22:28:02.864Z,25.80
2022-08-04T22:30:36.884Z,25.70
2022-08-04T22:33:08.767Z,25.70
2022-08-04T22:35:49.009Z,25.60
2022-08-04T22:38:24.530Z,25.60
2022-08-04T22:41:01.602Z,25.50
2022-08-04T22:43:34.356Z,25.50
2022-08-04T22:46:06.689Z,25.30
2022-08-04T22:48:37.585Z,25.30
2022-08-04T22:51:09.024Z,25.20
2022-08-04T22:53:37.464Z,25.10
2022-08-04T22:56:11.135Z,25.10
2022-08-04T22:58:45.015Z,25.00
2022-08-04T23:01:16.125Z,24.90
2022-08-04T23:03:51.009Z,24.90
2022-08-04T23:06:28.312Z,24.80
2022-08-04T23:08:58.005Z,24.70
2022-08-04T23:11:34.655Z,24.70
2022-08-04T23:14:05.167Z,24.60
2022-08-04T23:16:40.882Z,24.50
2022-08-04T23:19:15.251Z,24.50
2022-08-04T23:21:47.325Z,24.50
2022-08-04T23:24:16.628Z,24.40
2022-08-04T23:26:48.928Z,24.40
2022-08-04T23:29:17.264Z,24.40
2022-08-04T23:32:00.035Z,24.40
2022-08-04T23:34:29.677Z,24.40
2022-08-04T23:36:59.091Z,24.40
2022-08-04T23:40:03.413Z,24.40
2022-08-04T23:42:21.087Z,24.30
2022-08-04T23:44:50.839Z,24.30
2022-08-04T23:48:15.376Z,24.20
2022-08-04T23:50:10.217Z,24.10
2022-08-04T23:52:39.055Z,24.10
2022-08-04T23:55:15.761Z,24.00
2022-08-04T23:58:05.468Z,24.00
